Nickelena — WDER746 — position and weather

sailwx.info

Track history (hours):
 
Tides and Currents Weather Stations Pressure Air Temp Water Temp Dewpoint Dewpoint Depression Visibility Wind Speed Wind Dir Waves Ship Positions

Nickelena

Last reported at 2014-Jun-26 10:21 UTC. Time now 2014-Jul-26 03:05 UTC.
Position N 45°45' W 087°03'.
Warning: this ship's position is 29 days out of date.

Length 33 m; draft 4.5 m.

Type: Tug. MMSI: 367393840.

Date/timePositionNaut miles runAvg speedWind from/ knotsBaromVisibWave heightAir tempDewpointWater temp
2014-Jun-26 10:21N 45°45' W 087°03'  
2014-Jun-22 18:28N 45°02' W 085°55'9 9.3
2014-Jun-22 17:33N 45°09' W 085°48'9 9.3
2014-Jun-22 16:33N 45°17' W 085°41'9 9.3
2014-Jun-22 15:33N 45°24' W 085°33'9 9.2
2014-Jun-22 14:33N 45°32' W 085°25'9 9.2
2014-Jun-22 13:33N 45°39' W 085°17'9 9.3
2014-Jun-22 12:33N 45°46' W 085°09'7 7.2
2014-Jun-22 11:33N 45°50' W 084°60'9 9.4
2014-Jun-22 10:33N 45°49' W 084°46'9 9.3
2014-Jun-22 09:33N 45°45' W 084°34'9 9.4
2014-Jun-22 08:33N 45°41' W 084°22'9 9.0
2014-Jun-22 07:33N 45°38' W 084°10'9 9.2
2014-Jun-22 06:33N 45°33' W 083°59'  
2014-Jun-18 21:33N 45°41' W 084°19'9 8.7
2014-Jun-18 20:33N 45°43' W 084°31'9 9.1
2014-Jun-18 19:33N 45°48' W 084°42'9 9.0
2014-Jun-18 18:33N 45°49' W 084°55'9 9.2
2014-Jun-18 17:33N 45°50' W 085°08'9 8.9
2014-Jun-18 16:33N 45°42' W 085°13'9 9.0
2014-Jun-18 15:33N 45°34' W 085°21'9 9.2
2014-Jun-18 14:33N 45°27' W 085°29'9 9.2
2014-Jun-18 13:33N 45°20' W 085°37'9 9.2
2014-Jun-18 12:33N 45°12' W 085°44'18 9.2
2014-Jun-18 10:33N 44°59' W 086°02'9 9.0
2014-Jun-18 09:32N 44°53' W 086°12'8 0.2
2014-Jun-16 16:32N 44°58' W 086°04'8 8.0
2014-Jun-16 15:34N 45°03' W 085°55'8 8.4
2014-Jun-16 14:33N 45°10' W 085°48'8 8.5
2014-Jun-16 13:34N 45°17' W 085°41'9 8.6
2014-Jun-16 12:33N 45°24' W 085°34'9 8.8
2014-Jun-16 11:33N 45°31' W 085°27'9 8.8
2014-Jun-16 10:34N 45°38' W 085°20'  
Track history (hours):
 
Tides and Currents Weather Stations Pressure Air Temp Water Temp Dewpoint Dewpoint Depression Visibility Wind Speed Wind Dir Waves Ship Positions

Nickelena

Last reported at 2014-Jun-26 10:21 UTC. Time now 2014-Jul-26 03:05 UTC.
Position N 45°45' W 087°03'.
Warning: this ship's position is 29 days out of date.

Length 33 m; draft 4.5 m.

Type: Tug. MMSI: 367393840.

Date/timePositionNaut miles runAvg speedWind from/ knotsBaromVisibWave heightAir tempDewpointWater temp
2014-Jun-26 10:21N 45°45' W 087°03'  
2014-Jun-22 18:28N 45°02' W 085°55'9 9.3
2014-Jun-22 17:33N 45°09' W 085°48'9 9.3
2014-Jun-22 16:33N 45°17' W 085°41'9 9.3
2014-Jun-22 15:33N 45°24' W 085°33'9 9.2
2014-Jun-22 14:33N 45°32' W 085°25'9 9.2
2014-Jun-22 13:33N 45°39' W 085°17'9 9.3
2014-Jun-22 12:33N 45°46' W 085°09'7 7.2
2014-Jun-22 11:33N 45°50' W 084°60'9 9.4
2014-Jun-22 10:33N 45°49' W 084°46'9 9.3
2014-Jun-22 09:33N 45°45' W 084°34'9 9.4
2014-Jun-22 08:33N 45°41' W 084°22'9 9.0
2014-Jun-22 07:33N 45°38' W 084°10'9 9.2
2014-Jun-22 06:33N 45°33' W 083°59'  
2014-Jun-18 21:33N 45°41' W 084°19'9 8.7
2014-Jun-18 20:33N 45°43' W 084°31'9 9.1
2014-Jun-18 19:33N 45°48' W 084°42'9 9.0
2014-Jun-18 18:33N 45°49' W 084°55'9 9.2
2014-Jun-18 17:33N 45°50' W 085°08'9 8.9
2014-Jun-18 16:33N 45°42' W 085°13'9 9.0
2014-Jun-18 15:33N 45°34' W 085°21'9 9.2
2014-Jun-18 14:33N 45°27' W 085°29'9 9.2
2014-Jun-18 13:33N 45°20' W 085°37'9 9.2
2014-Jun-18 12:33N 45°12' W 085°44'18 9.2
2014-Jun-18 10:33N 44°59' W 086°02'9 9.0
2014-Jun-18 09:32N 44°53' W 086°12'8 0.2
2014-Jun-16 16:32N 44°58' W 086°04'8 8.0
2014-Jun-16 15:34N 45°03' W 085°55'8 8.4
2014-Jun-16 14:33N 45°10' W 085°48'8 8.5
2014-Jun-16 13:34N 45°17' W 085°41'9 8.6
2014-Jun-16 12:33N 45°24' W 085°34'9 8.8
2014-Jun-16 11:33N 45°31' W 085°27'9 8.8
2014-Jun-16 10:34N 45°38' W 085°20'  

Dump ship's entire track history